Terminal Aerodrome Forecast
Issued by NWS Riverton, WY

Home | Current Version | Previous Version | Text Only | Print | Product List | Glossary On
Versions: 1 2 3 4 5 6 7 8 9 10 11 12 13 14
000
FTUS45 KRIW 280500
TAFRIW
TAF
KRIW 280525Z 2806/2906 23011KT P6SM FEW050 BKN130
     FM280800 30008KT P6SM FEW050 BKN130
     FM282200 35007KT P6SM VCSH BKN040
     FM290100 36011KT 5SM -SN OVC030
     FM290300 01015G25KT 2SM -SN BLSN SCT012 OVC020=

USA.gov is the U.S. government's official web portal to all federal, state and local government web resources and services.